Black Rock Airport


Codes: FABP/
Name: Black Rock Airport
City: Santoy
Country: South Africa
Elevation: 3450 ft.

Photos at Black Rock Airport


   Photos courtesy of SpottingLog. You can add your own sightings and photos by signing up for a free trial today.



No photos found.

Weather at Black Rock Airport


Time (UTC)DescriptionTempratureWindCloud coverageVisibilityPressureHumidity
21-Feb-2024 03:00Broken Clouds28°C7 mph, E75%10000m1009hPa28%
21-Feb-2024 06:00Broken Clouds29°C9 mph, NE75%10000m1009hPa26%
21-Feb-2024 09:00Broken Clouds34°C13 mph, N58%10000m1008hPa20%
21-Feb-2024 12:00Scattered Clouds40°C16 mph, NW42%10000m1005hPa13%
21-Feb-2024 15:00Broken Clouds39°C20 mph, W71%10000m1004hPa12%
21-Feb-2024 18:00Broken Clouds32°C13 mph, SW73%10000m1006hPa15%
21-Feb-2024 21:00Overcast Clouds29°C11 mph, S95%10000m1009hPa12%
22-Feb-2024 00:00Light Rain25°C9 mph, S98%10000m1008hPa23%
22-Feb-2024 03:00Overcast Clouds25°C7 mph, SE100%10000m1008hPa23%
22-Feb-2024 06:00Broken Clouds27°C4 mph, S71%10000m1009hPa19%
22-Feb-2024 09:00Clear Sky35°C4 mph, NW6%10000m1008hPa13%
22-Feb-2024 12:00Clear Sky38°C13 mph, W5%10000m1005hPa11%
22-Feb-2024 15:00Clear Sky38°C16 mph, W3%10000m1004hPa11%
22-Feb-2024 18:00Clear Sky31°C11 mph, SW2%10000m1006hPa16%
22-Feb-2024 21:00Clear Sky27°C11 mph, S0%10000m1008hPa17%
23-Feb-2024 00:00Clear Sky24°C9 mph, S0%10000m1008hPa19%
23-Feb-2024 03:00Clear Sky24°C9 mph, E0%10000m1007hPa29%
23-Feb-2024 06:00Clear Sky27°C16 mph, NE1%10000m1009hPa34%
23-Feb-2024 09:00Clear Sky36°C16 mph, N6%10000m1007hPa18%
23-Feb-2024 12:00Few Clouds39°C16 mph, NW14%10000m1004hPa15%
23-Feb-2024 15:00Overcast Clouds33°C27 mph, N85%10000m1004hPa27%
23-Feb-2024 18:00Light Rain26°C2 mph, N92%10000m1009hPa45%
23-Feb-2024 21:00Light Rain23°C13 mph, E83%10000m1009hPa56%
24-Feb-2024 00:00Broken Clouds23°C7 mph, NE79%10000m1010hPa59%
24-Feb-2024 03:00Overcast Clouds23°C9 mph, NE100%10000m1011hPa60%
24-Feb-2024 06:00Overcast Clouds25°C16 mph, N100%10000m1012hPa52%
24-Feb-2024 09:00Scattered Clouds34°C22 mph, NW26%10000m1010hPa27%
24-Feb-2024 12:00Few Clouds38°C18 mph, NW17%10000m1007hPa17%
24-Feb-2024 15:00Broken Clouds36°C13 mph, NW73%10000m1005hPa18%
24-Feb-2024 18:00Broken Clouds28°C11 mph, NE75%10000m1009hPa37%
24-Feb-2024 21:00Few Clouds25°C4 mph, S18%10000m1011hPa42%
25-Feb-2024 00:00Few Clouds24°C11 mph, S15%10000m1011hPa25%
25-Feb-2024 03:00Scattered Clouds22°C13 mph, S33%10000m1013hPa13%
25-Feb-2024 06:00Scattered Clouds25°C9 mph, SE47%10000m1015hPa12%
25-Feb-2024 09:00Overcast Clouds32°C0 mph, E86%10000m1013hPa10%
25-Feb-2024 12:00Broken Clouds37°C9 mph, W78%10000m1011hPa9%
25-Feb-2024 15:00Scattered Clouds36°C18 mph, SW25%10000m1009hPa9%
25-Feb-2024 18:00Scattered Clouds28°C11 mph, SW32%10000m1012hPa15%
25-Feb-2024 21:00Scattered Clouds25°C9 mph, S36%10000m1014hPa14%
26-Feb-2024 00:00Few Clouds23°C11 mph, S18%10000m1014hPa14%